sensor_id;sensor_type;location;lat;lon;timestamp;temperature;humidity
23283;DHT22;11810;51.178;3.878;2022-12-26T00:00:56;10.60;99.90
23283;DHT22;11810;51.178;3.878;2022-12-26T00:03:22;10.50;99.90
23283;DHT22;11810;51.178;3.878;2022-12-26T00:05:48;10.60;99.90
23283;DHT22;11810;51.178;3.878;2022-12-26T00:08:14;10.50;99.90
23283;DHT22;11810;51.178;3.878;2022-12-26T00:10:40;10.40;99.90
23283;DHT22;11810;51.178;3.878;2022-12-26T00:13:06;10.30;99.90
23283;DHT22;11810;51.178;3.878;2022-12-26T00:15:33;10.30;99.90
23283;DHT22;11810;51.178;3.878;2022-12-26T00:17:59;10.20;99.90
23283;DHT22;11810;51.178;3.878;2022-12-26T00:20:25;10.30;99.90
23283;DHT22;11810;51.178;3.878;2022-12-26T00:25:00;10.30;99.90
23283;DHT22;11810;51.178;3.878;2022-12-26T00:27:27;10.40;99.90
23283;DHT22;11810;51.178;3.878;2022-12-26T00:29:53;10.40;99.90
23283;DHT22;11810;51.178;3.878;2022-12-26T00:32:18;10.30;99.90
23283;DHT22;11810;51.178;3.878;2022-12-26T00:34:44;10.40;99.90
23283;DHT22;11810;51.178;3.878;2022-12-26T00:37:10;10.40;99.90
23283;DHT22;11810;51.178;3.878;2022-12-26T00:39:36;10.50;99.90
23283;DHT22;11810;51.178;3.878;2022-12-26T00:42:02;10.40;99.90
23283;DHT22;11810;51.178;3.878;2022-12-26T00:44:28;10.40;99.90
23283;DHT22;11810;51.178;3.878;2022-12-26T00:46:54;10.30;99.90
23283;DHT22;11810;51.178;3.878;2022-12-26T00:49:20;10.40;99.90
23283;DHT22;11810;51.178;3.878;2022-12-26T00:51:46;10.40;99.90
23283;DHT22;11810;51.178;3.878;2022-12-26T00:54:11;10.60;99.90
23283;DHT22;11810;51.178;3.878;2022-12-26T00:56:38;10.50;99.90
23283;DHT22;11810;51.178;3.878;2022-12-26T00:59:04;10.40;99.90
23283;DHT22;11810;51.178;3.878;2022-12-26T01:01:30;10.40;99.90
23283;DHT22;11810;51.178;3.878;2022-12-26T01:03:57;10.40;99.90
23283;DHT22;11810;51.178;3.878;2022-12-26T01:06:24;10.50;99.90
23283;DHT22;11810;51.178;3.878;2022-12-26T01:08:50;10.50;99.90
23283;DHT22;11810;51.178;3.878;2022-12-26T01:11:16;10.40;99.90
23283;DHT22;11810;51.178;3.878;2022-12-26T01:14:00;10.30;99.90
23283;DHT22;11810;51.178;3.878;2022-12-26T01:16:27;10.30;99.90
23283;DHT22;11810;51.178;3.878;2022-12-26T01:18:53;10.10;99.90
23283;DHT22;11810;51.178;3.878;2022-12-26T01:21:19;10.00;99.90
23283;DHT22;11810;51.178;3.878;2022-12-26T01:23:45;10.00;99.90
23283;DHT22;11810;51.178;3.878;2022-12-26T01:26:10;10.00;99.90
23283;DHT22;11810;51.178;3.878;2022-12-26T01:28:36;10.00;99.90
23283;DHT22;11810;51.178;3.878;2022-12-26T01:31:03;9.90;99.90
23283;DHT22;11810;51.178;3.878;2022-12-26T01:33:30;9.80;99.90
23283;DHT22;11810;51.178;3.878;2022-12-26T01:35:57;9.80;99.90
23283;DHT22;11810;51.178;3.878;2022-12-26T01:38:23;9.80;99.90
23283;DHT22;11810;51.178;3.878;2022-12-26T01:40:49;9.80;99.90
23283;DHT22;11810;51.178;3.878;2022-12-26T01:43:54;9.70;99.90
23283;DHT22;11810;51.178;3.878;2022-12-26T01:46:42;9.70;99.90
23283;DHT22;11810;51.178;3.878;2022-12-26T01:49:15;9.60;99.90
23283;DHT22;11810;51.178;3.878;2022-12-26T01:51:46;9.60;99.90
23283;DHT22;11810;51.178;3.878;2022-12-26T01:54:13;9.50;99.90
23283;DHT22;11810;51.178;3.878;2022-12-26T01:56:42;9.50;99.90
23283;DHT22;11810;51.178;3.878;2022-12-26T01:59:16;9.50;99.90
23283;DHT22;11810;51.178;3.878;2022-12-26T02:01:46;9.50;99.90
23283;DHT22;11810;51.178;3.878;2022-12-26T02:04:17;9.50;99.90
23283;DHT22;11810;51.178;3.878;2022-12-26T02:07:04;9.50;99.90
23283;DHT22;11810;51.178;3.878;2022-12-26T02:09:30;9.50;99.90
23283;DHT22;11810;51.178;3.878;2022-12-26T02:12:15;9.50;99.90
23283;DHT22;11810;51.178;3.878;2022-12-26T02:14:45;9.40;99.90
23283;DHT22;11810;51.178;3.878;2022-12-26T02:17:12;9.30;99.90
23283;DHT22;11810;51.178;3.878;2022-12-26T02:20:10;9.20;99.90
23283;DHT22;11810;51.178;3.878;2022-12-26T02:28:15;9.10;99.90
23283;DHT22;11810;51.178;3.878;2022-12-26T02:31:12;9.00;99.90
23283;DHT22;11810;51.178;3.878;2022-12-26T02:44:58;9.00;99.90
23283;DHT22;11810;51.178;3.878;2022-12-26T02:56:52;9.20;99.90
23283;DHT22;11810;51.178;3.878;2022-12-26T02:59:58;9.10;99.90
23283;DHT22;11810;51.178;3.878;2022-12-26T03:03:04;9.20;99.90
23283;DHT22;11810;51.178;3.878;2022-12-26T03:05:55;9.20;99.90
23283;DHT22;11810;51.178;3.878;2022-12-26T03:08:47;8.90;99.90
23283;DHT22;11810;51.178;3.878;2022-12-26T03:11:43;8.90;99.90
23283;DHT22;11810;51.178;3.878;2022-12-26T03:14:31;9.00;99.90
23283;DHT22;11810;51.178;3.878;2022-12-26T03:17:07;9.00;99.90
23283;DHT22;11810;51.178;3.878;2022-12-26T03:19:58;9.00;99.90
23283;DHT22;11810;51.178;3.878;2022-12-26T03:25:18;9.00;99.90
23283;DHT22;11810;51.178;3.878;2022-12-26T03:28:03;9.00;99.90
23283;DHT22;11810;51.178;3.878;2022-12-26T03:30:29;9.00;99.90
23283;DHT22;11810;51.178;3.878;2022-12-26T03:33:31;9.00;99.90
23283;DHT22;11810;51.178;3.878;2022-12-26T03:41:40;9.00;99.90
23283;DHT22;11810;51.178;3.878;2022-12-26T03:47:34;9.20;99.90
23283;DHT22;11810;51.178;3.878;2022-12-26T03:50:34;9.30;99.90
23283;DHT22;11810;51.178;3.878;2022-12-26T03:53:25;9.40;99.90
23283;DHT22;11810;51.178;3.878;2022-12-26T03:56:32;9.40;99.90
23283;DHT22;11810;51.178;3.878;2022-12-26T03:59:28;9.50;99.90
23283;DHT22;11810;51.178;3.878;2022-12-26T04:02:14;9.50;99.90
23283;DHT22;11810;51.178;3.878;2022-12-26T04:05:02;9.60;99.90
23283;DHT22;11810;51.178;3.878;2022-12-26T04:07:58;9.60;99.90
23283;DHT22;11810;51.178;3.878;2022-12-26T04:10:48;9.60;99.90
23283;DHT22;11810;51.178;3.878;2022-12-26T04:16:36;9.80;99.90
23283;DHT22;11810;51.178;3.878;2022-12-26T04:22:08;9.70;99.90
23283;DHT22;11810;51.178;3.878;2022-12-26T04:27:51;9.70;99.90
23283;DHT22;11810;51.178;3.878;2022-12-26T04:30:37;9.70;99.90
23283;DHT22;11810;51.178;3.878;2022-12-26T04:33:27;9.70;99.90
23283;DHT22;11810;51.178;3.878;2022-12-26T04:36:19;9.70;99.90
23283;DHT22;11810;51.178;3.878;2022-12-26T04:39:08;9.60;99.90
23283;DHT22;11810;51.178;3.878;2022-12-26T04:41:55;9.60;99.90
23283;DHT22;11810;51.178;3.878;2022-12-26T04:44:41;9.70;99.90
23283;DHT22;11810;51.178;3.878;2022-12-26T04:47:07;9.70;99.90
23283;DHT22;11810;51.178;3.878;2022-12-26T04:49:43;9.70;99.90
23283;DHT22;11810;51.178;3.878;2022-12-26T04:52:28;9.70;99.90
23283;DHT22;11810;51.178;3.878;2022-12-26T04:55:15;9.60;99.90
23283;DHT22;11810;51.178;3.878;2022-12-26T04:57:41;9.60;99.90
23283;DHT22;11810;51.178;3.878;2022-12-26T05:00:08;9.70;99.90
23283;DHT22;11810;51.178;3.878;2022-12-26T05:02:34;9.70;99.90
23283;DHT22;11810;51.178;3.878;2022-12-26T05:05:18;9.70;99.90
23283;DHT22;11810;51.178;3.878;2022-12-26T05:08:03;9.70;99.90
23283;DHT22;11810;51.178;3.878;2022-12-26T05:10:47;9.70;99.90
23283;DHT22;11810;51.178;3.878;2022-12-26T05:13:13;9.60;99.90
23283;DHT22;11810;51.178;3.878;2022-12-26T05:15:39;9.50;99.90
23283;DHT22;11810;51.178;3.878;2022-12-26T05:18:24;9.50;99.90
23283;DHT22;11810;51.178;3.878;2022-12-26T05:21:16;9.60;99.90
23283;DHT22;11810;51.178;3.878;2022-12-26T05:24:09;9.50;99.90
23283;DHT22;11810;51.178;3.878;2022-12-26T05:26:53;9.50;99.90
23283;DHT22;11810;51.178;3.878;2022-12-26T05:29:38;9.50;99.90
23283;DHT22;11810;51.178;3.878;2022-12-26T05:32:04;9.50;99.90
23283;DHT22;11810;51.178;3.878;2022-12-26T05:34:30;9.40;99.90
23283;DHT22;11810;51.178;3.878;2022-12-26T05:36:57;9.40;99.90
23283;DHT22;11810;51.178;3.878;2022-12-26T05:39:24;9.40;99.90
23283;DHT22;11810;51.178;3.878;2022-12-26T05:41:50;9.40;99.90
23283;DHT22;11810;51.178;3.878;2022-12-26T05:44:16;9.40;99.90
23283;DHT22;11810;51.178;3.878;2022-12-26T05:46:42;9.40;99.90
23283;DHT22;11810;51.178;3.878;2022-12-26T05:49:09;9.40;99.90
23283;DHT22;11810;51.178;3.878;2022-12-26T05:51:35;9.30;99.90
23283;DHT22;11810;51.178;3.878;2022-12-26T05:54:01;9.50;99.90
23283;DHT22;11810;51.178;3.878;2022-12-26T05:56:28;9.60;99.90
23283;DHT22;11810;51.178;3.878;2022-12-26T05:58:58;9.70;99.90
23283;DHT22;11810;51.178;3.878;2022-12-26T06:01:26;9.70;99.90
23283;DHT22;11810;51.178;3.878;2022-12-26T06:03:54;9.70;99.90
23283;DHT22;11810;51.178;3.878;2022-12-26T06:06:21;9.70;99.90
23283;DHT22;11810;51.178;3.878;2022-12-26T06:08:48;9.80;99.90
23283;DHT22;11810;51.178;3.878;2022-12-26T06:11:15;9.70;99.90
23283;DHT22;11810;51.178;3.878;2022-12-26T06:13:41;9.70;99.90
23283;DHT22;11810;51.178;3.878;2022-12-26T06:16:11;9.70;99.90
23283;DHT22;11810;51.178;3.878;2022-12-26T06:18:37;9.70;99.90
23283;DHT22;11810;51.178;3.878;2022-12-26T06:21:09;9.70;99.90
23283;DHT22;11810;51.178;3.878;2022-12-26T06:23:36;9.70;99.90
23283;DHT22;11810;51.178;3.878;2022-12-26T06:26:03;9.70;99.90
23283;DHT22;11810;51.178;3.878;2022-12-26T06:28:30;9.70;99.90
23283;DHT22;11810;51.178;3.878;2022-12-26T06:31:06;9.70;99.90
23283;DHT22;11810;51.178;3.878;2022-12-26T06:33:32;9.80;99.90
23283;DHT22;11810;51.178;3.878;2022-12-26T06:36:03;9.80;99.90
23283;DHT22;11810;51.178;3.878;2022-12-26T06:38:29;9.80;99.90
23283;DHT22;11810;51.178;3.878;2022-12-26T06:40:55;9.90;99.90
23283;DHT22;11810;51.178;3.878;2022-12-26T06:43:21;9.70;99.90
23283;DHT22;11810;51.178;3.878;2022-12-26T06:45:57;9.70;99.90
23283;DHT22;11810;51.178;3.878;2022-12-26T06:48:24;9.70;99.90
23283;DHT22;11810;51.178;3.878;2022-12-26T06:50:50;9.70;99.90
23283;DHT22;11810;51.178;3.878;2022-12-26T06:53:16;9.70;99.90
23283;DHT22;11810;51.178;3.878;2022-12-26T06:55:42;9.70;99.90
23283;DHT22;11810;51.178;3.878;2022-12-26T06:58:08;9.70;99.90
23283;DHT22;11810;51.178;3.878;2022-12-26T07:00:36;9.70;99.90
23283;DHT22;11810;51.178;3.878;2022-12-26T07:03:02;9.70;99.90
23283;DHT22;11810;51.178;3.878;2022-12-26T07:05:27;9.80;99.90
23283;DHT22;11810;51.178;3.878;2022-12-26T07:07:53;9.70;99.90
23283;DHT22;11810;51.178;3.878;2022-12-26T07:10:20;9.70;99.90
23283;DHT22;11810;51.178;3.878;2022-12-26T07:12:47;9.70;99.90
23283;DHT22;11810;51.178;3.878;2022-12-26T07:15:16;9.70;99.90
23283;DHT22;11810;51.178;3.878;2022-12-26T07:17:42;9.80;99.90
23283;DHT22;11810;51.178;3.878;2022-12-26T07:20:08;9.90;99.90
23283;DHT22;11810;51.178;3.878;2022-12-26T07:22:34;9.90;99.90
23283;DHT22;11810;51.178;3.878;2022-12-26T07:25:00;9.90;99.90
23283;DHT22;11810;51.178;3.878;2022-12-26T07:27:26;9.90;99.90
23283;DHT22;11810;51.178;3.878;2022-12-26T07:29:51;9.80;99.90
23283;DHT22;11810;51.178;3.878;2022-12-26T07:32:20;9.80;99.90
23283;DHT22;11810;51.178;3.878;2022-12-26T07:34:46;9.80;99.90
23283;DHT22;11810;51.178;3.878;2022-12-26T07:37:12;9.90;99.90
23283;DHT22;11810;51.178;3.878;2022-12-26T07:39:37;9.90;99.90
23283;DHT22;11810;51.178;3.878;2022-12-26T07:42:04;9.90;99.90
23283;DHT22;11810;51.178;3.878;2022-12-26T07:44:31;9.80;99.90
23283;DHT22;11810;51.178;3.878;2022-12-26T07:46:58;9.80;99.90
23283;DHT22;11810;51.178;3.878;2022-12-26T07:49:24;9.90;99.90
23283;DHT22;11810;51.178;3.878;2022-12-26T07:51:51;9.90;99.90
23283;DHT22;11810;51.178;3.878;2022-12-26T07:54:17;9.90;99.90
23283;DHT22;11810;51.178;3.878;2022-12-26T07:56:43;9.90;99.90
23283;DHT22;11810;51.178;3.878;2022-12-26T07:59:14;9.90;99.90
23283;DHT22;11810;51.178;3.878;2022-12-26T08:01:41;10.00;99.90
23283;DHT22;11810;51.178;3.878;2022-12-26T08:04:07;10.00;99.90
23283;DHT22;11810;51.178;3.878;2022-12-26T08:06:32;10.00;99.90
23283;DHT22;11810;51.178;3.878;2022-12-26T08:08:58;10.00;99.90
23283;DHT22;11810;51.178;3.878;2022-12-26T08:11:24;10.00;99.90
23283;DHT22;11810;51.178;3.878;2022-12-26T08:13:51;10.10;99.90
23283;DHT22;11810;51.178;3.878;2022-12-26T08:16:20;10.20;99.90
23283;DHT22;11810;51.178;3.878;2022-12-26T08:18:51;10.20;99.90
23283;DHT22;11810;51.178;3.878;2022-12-26T08:21:18;10.30;99.90
23283;DHT22;11810;51.178;3.878;2022-12-26T08:23:44;10.20;99.90
23283;DHT22;11810;51.178;3.878;2022-12-26T08:26:12;10.20;99.90
23283;DHT22;11810;51.178;3.878;2022-12-26T08:28:46;10.20;99.90
23283;DHT22;11810;51.178;3.878;2022-12-26T08:31:13;10.20;99.90
23283;DHT22;11810;51.178;3.878;2022-12-26T08:33:39;10.20;99.90
23283;DHT22;11810;51.178;3.878;2022-12-26T08:36:07;10.20;99.90
23283;DHT22;11810;51.178;3.878;2022-12-26T08:38:34;10.20;99.90
23283;DHT22;11810;51.178;3.878;2022-12-26T08:41:00;10.30;99.90
23283;DHT22;11810;51.178;3.878;2022-12-26T08:43:25;10.30;99.90
23283;DHT22;11810;51.178;3.878;2022-12-26T08:46:04;10.30;99.90
23283;DHT22;11810;51.178;3.878;2022-12-26T08:48:31;10.20;99.90
23283;DHT22;11810;51.178;3.878;2022-12-26T08:51:03;10.20;99.90
23283;DHT22;11810;51.178;3.878;2022-12-26T08:53:31;10.20;99.90
23283;DHT22;11810;51.178;3.878;2022-12-26T08:55:58;10.20;99.90
23283;DHT22;11810;51.178;3.878;2022-12-26T08:58:24;10.30;99.90
23283;DHT22;11810;51.178;3.878;2022-12-26T09:00:50;10.30;99.90
23283;DHT22;11810;51.178;3.878;2022-12-26T09:03:17;10.40;99.90
23283;DHT22;11810;51.178;3.878;2022-12-26T09:05:43;10.20;99.90
23283;DHT22;11810;51.178;3.878;2022-12-26T09:08:10;10.20;99.90
23283;DHT22;11810;51.178;3.878;2022-12-26T09:10:36;10.30;99.90
23283;DHT22;11810;51.178;3.878;2022-12-26T09:13:02;10.30;99.90
23283;DHT22;11810;51.178;3.878;2022-12-26T09:15:28;10.20;99.90
23283;DHT22;11810;51.178;3.878;2022-12-26T09:17:54;10.20;99.90
23283;DHT22;11810;51.178;3.878;2022-12-26T09:20:20;10.30;99.90
23283;DHT22;11810;51.178;3.878;2022-12-26T09:22:46;10.40;99.90
23283;DHT22;11810;51.178;3.878;2022-12-26T09:25:20;10.50;99.90
23283;DHT22;11810;51.178;3.878;2022-12-26T09:27:48;10.30;99.90
23283;DHT22;11810;51.178;3.878;2022-12-26T09:30:15;10.00;99.90
23283;DHT22;11810;51.178;3.878;2022-12-26T09:32:41;9.90;99.90
23283;DHT22;11810;51.178;3.878;2022-12-26T09:35:07;9.70;99.90
23283;DHT22;11810;51.178;3.878;2022-12-26T09:37:33;9.60;99.90
23283;DHT22;11810;51.178;3.878;2022-12-26T09:39:59;9.60;99.90
23283;DHT22;11810;51.178;3.878;2022-12-26T09:45:12;9.60;99.90
23283;DHT22;11810;51.178;3.878;2022-12-26T09:50:30;9.60;99.90
23283;DHT22;11810;51.178;3.878;2022-12-26T09:53:33;9.50;99.90
23283;DHT22;11810;51.178;3.878;2022-12-26T09:56:04;9.30;99.90
23283;DHT22;11810;51.178;3.878;2022-12-26T09:58:46;9.20;99.90
23283;DHT22;11810;51.178;3.878;2022-12-26T10:01:26;9.20;99.90
23283;DHT22;11810;51.178;3.878;2022-12-26T10:03:55;9.10;99.90
23283;DHT22;11810;51.178;3.878;2022-12-26T10:20:15;8.80;99.90
23283;DHT22;11810;51.178;3.878;2022-12-26T10:25:20;8.90;99.90
23283;DHT22;11810;51.178;3.878;2022-12-26T10:27:49;9.00;99.90
23283;DHT22;11810;51.178;3.878;2022-12-26T10:30:31;8.90;99.90
23283;DHT22;11810;51.178;3.878;2022-12-26T10:33:01;8.90;99.90
23283;DHT22;11810;51.178;3.878;2022-12-26T10:35:32;8.90;99.90
23283;DHT22;11810;51.178;3.878;2022-12-26T10:38:05;8.90;99.90
23283;DHT22;11810;51.178;3.878;2022-12-26T10:40:42;8.80;99.90
23283;DHT22;11810;51.178;3.878;2022-12-26T10:45:54;8.80;99.90
23283;DHT22;11810;51.178;3.878;2022-12-26T10:48:27;8.70;99.90
23283;DHT22;11810;51.178;3.878;2022-12-26T10:50:54;8.60;99.90
23283;DHT22;11810;51.178;3.878;2022-12-26T10:53:20;8.40;99.90
23283;DHT22;11810;51.178;3.878;2022-12-26T10:55:46;8.30;99.90
23283;DHT22;11810;51.178;3.878;2022-12-26T10:58:22;8.30;99.90
23283;DHT22;11810;51.178;3.878;2022-12-26T11:00:48;8.30;99.90
23283;DHT22;11810;51.178;3.878;2022-12-26T11:03:18;8.40;99.90
23283;DHT22;11810;51.178;3.878;2022-12-26T11:08:37;8.60;99.90
23283;DHT22;11810;51.178;3.878;2022-12-26T11:11:07;8.40;99.90
23283;DHT22;11810;51.178;3.878;2022-12-26T11:13:49;8.50;99.90
23283;DHT22;11810;51.178;3.878;2022-12-26T11:16:29;8.60;99.90
23283;DHT22;11810;51.178;3.878;2022-12-26T11:18:56;8.60;99.90
23283;DHT22;11810;51.178;3.878;2022-12-26T11:21:29;8.60;99.90
23283;DHT22;11810;51.178;3.878;2022-12-26T11:24:15;8.50;99.90
23283;DHT22;11810;51.178;3.878;2022-12-26T11:26:41;8.40;99.90
23283;DHT22;11810;51.178;3.878;2022-12-26T11:29:18;8.40;99.90
23283;DHT22;11810;51.178;3.878;2022-12-26T11:32:02;8.40;99.90
23283;DHT22;11810;51.178;3.878;2022-12-26T11:34:39;8.30;99.90
23283;DHT22;11810;51.178;3.878;2022-12-26T11:37:30;8.40;99.90
23283;DHT22;11810;51.178;3.878;2022-12-26T11:39:58;8.20;99.90
23283;DHT22;11810;51.178;3.878;2022-12-26T11:42:26;8.20;99.90
23283;DHT22;11810;51.178;3.878;2022-12-26T11:44:55;8.20;99.90
23283;DHT22;11810;51.178;3.878;2022-12-26T11:47:29;8.10;99.90
23283;DHT22;11810;51.178;3.878;2022-12-26T11:50:07;7.90;99.90
23283;DHT22;11810;51.178;3.878;2022-12-26T11:52:41;8.00;99.90
23283;DHT22;11810;51.178;3.878;2022-12-26T12:00:38;8.10;99.90
23283;DHT22;11810;51.178;3.878;2022-12-26T12:03:11;8.20;99.90
23283;DHT22;11810;51.178;3.878;2022-12-26T12:27:57;8.10;99.90
23283;DHT22;11810;51.178;3.878;2022-12-26T12:34:30;8.00;99.90
23283;DHT22;11810;51.178;3.878;2022-12-26T12:40:12;7.80;99.90
23283;DHT22;11810;51.178;3.878;2022-12-26T12:43:10;7.70;99.90
23283;DHT22;11810;51.178;3.878;2022-12-26T12:45:56;7.60;99.90
23283;DHT22;11810;51.178;3.878;2022-12-26T12:51:44;7.60;99.90
23283;DHT22;11810;51.178;3.878;2022-12-26T12:57:34;7.60;99.90
23283;DHT22;11810;51.178;3.878;2022-12-26T13:02:42;7.60;99.90
23283;DHT22;11810;51.178;3.878;2022-12-26T13:05:43;7.40;99.90
23283;DHT22;11810;51.178;3.878;2022-12-26T13:08:40;7.30;99.90
23283;DHT22;11810;51.178;3.878;2022-12-26T13:11:31;7.20;99.90
23283;DHT22;11810;51.178;3.878;2022-12-26T13:14:11;7.00;99.90
23283;DHT22;11810;51.178;3.878;2022-12-26T13:16:49;6.80;99.90
23283;DHT22;11810;51.178;3.878;2022-12-26T13:19:21;6.90;99.90
23283;DHT22;11810;51.178;3.878;2022-12-26T13:21:49;6.80;99.90
23283;DHT22;11810;51.178;3.878;2022-12-26T13:24:19;6.80;99.90
23283;DHT22;11810;51.178;3.878;2022-12-26T13:26:58;6.70;99.90
23283;DHT22;11810;51.178;3.878;2022-12-26T13:32:01;6.70;99.90
23283;DHT22;11810;51.178;3.878;2022-12-26T13:34:29;6.60;99.90
23283;DHT22;11810;51.178;3.878;2022-12-26T13:36:57;6.60;99.90
23283;DHT22;11810;51.178;3.878;2022-12-26T13:39:29;6.50;99.90
23283;DHT22;11810;51.178;3.878;2022-12-26T13:42:18;6.50;99.90
23283;DHT22;11810;51.178;3.878;2022-12-26T13:45:58;6.50;99.90
23283;DHT22;11810;51.178;3.878;2022-12-26T13:50:59;6.70;99.90
23283;DHT22;11810;51.178;3.878;2022-12-26T13:55:59;6.50;99.90
23283;DHT22;11810;51.178;3.878;2022-12-26T14:06:44;6.60;99.90
23283;DHT22;11810;51.178;3.878;2022-12-26T14:12:23;6.70;99.90
23283;DHT22;11810;51.178;3.878;2022-12-26T14:15:34;6.70;99.90
23283;DHT22;11810;51.178;3.878;2022-12-26T14:26:20;7.40;99.90
23283;DHT22;11810;51.178;3.878;2022-12-26T14:34:10;7.60;99.90
23283;DHT22;11810;51.178;3.878;2022-12-26T14:37:03;7.50;99.90
23283;DHT22;11810;51.178;3.878;2022-12-26T14:40:15;7.40;99.90
23283;DHT22;11810;51.178;3.878;2022-12-26T14:45:55;7.10;99.90
23283;DHT22;11810;51.178;3.878;2022-12-26T14:50:50;7.20;99.90
23283;DHT22;11810;51.178;3.878;2022-12-26T14:58:50;6.80;99.90
23283;DHT22;11810;51.178;3.878;2022-12-26T15:10:02;6.60;99.90
23283;DHT22;11810;51.178;3.878;2022-12-26T15:13:04;6.50;99.90
23283;DHT22;11810;51.178;3.878;2022-12-26T15:30:41;5.90;99.90
23283;DHT22;11810;51.178;3.878;2022-12-26T15:36:24;5.80;99.90
23283;DHT22;11810;51.178;3.878;2022-12-26T15:38:57;5.90;99.90
23283;DHT22;11810;51.178;3.878;2022-12-26T15:44:24;5.60;99.90
23283;DHT22;11810;51.178;3.878;2022-12-26T15:58:19;5.30;99.90
23283;DHT22;11810;51.178;3.878;2022-12-26T16:00:52;5.20;99.90
23283;DHT22;11810;51.178;3.878;2022-12-26T16:06:25;5.10;99.90
23283;DHT22;11810;51.178;3.878;2022-12-26T16:11:51;5.30;99.90
23283;DHT22;11810;51.178;3.878;2022-12-26T16:14:37;5.20;99.90
23283;DHT22;11810;51.178;3.878;2022-12-26T16:18:16;4.90;99.90
23283;DHT22;11810;51.178;3.878;2022-12-26T16:20:43;4.80;99.90
23283;DHT22;11810;51.178;3.878;2022-12-26T16:23:30;4.70;99.90
23283;DHT22;11810;51.178;3.878;2022-12-26T16:25:58;4.60;99.90
23283;DHT22;11810;51.178;3.878;2022-12-26T16:28:45;4.70;99.90
23283;DHT22;11810;51.178;3.878;2022-12-26T16:31:23;4.90;99.90
23283;DHT22;11810;51.178;3.878;2022-12-26T16:33:50;5.00;99.90
23283;DHT22;11810;51.178;3.878;2022-12-26T16:36:27;5.10;99.90
23283;DHT22;11810;51.178;3.878;2022-12-26T16:38:54;5.10;99.90
23283;DHT22;11810;51.178;3.878;2022-12-26T16:41:25;5.10;99.90
23283;DHT22;11810;51.178;3.878;2022-12-26T16:43:52;5.10;99.90
23283;DHT22;11810;51.178;3.878;2022-12-26T16:46:21;5.00;99.90
23283;DHT22;11810;51.178;3.878;2022-12-26T16:48:57;5.00;99.90
23283;DHT22;11810;51.178;3.878;2022-12-26T16:51:44;5.10;99.90
23283;DHT22;11810;51.178;3.878;2022-12-26T16:56:41;5.00;99.90
23283;DHT22;11810;51.178;3.878;2022-12-26T16:59:16;5.00;99.90
23283;DHT22;11810;51.178;3.878;2022-12-26T17:01:48;5.00;99.90
23283;DHT22;11810;51.178;3.878;2022-12-26T17:04:16;4.90;99.90
23283;DHT22;11810;51.178;3.878;2022-12-26T17:09:17;4.90;99.90
23283;DHT22;11810;51.178;3.878;2022-12-26T17:14:19;4.90;99.90
23283;DHT22;11810;51.178;3.878;2022-12-26T17:16:46;4.90;99.90
23283;DHT22;11810;51.178;3.878;2022-12-26T17:19:20;4.80;99.90
23283;DHT22;11810;51.178;3.878;2022-12-26T17:24:49;4.60;99.90
23283;DHT22;11810;51.178;3.878;2022-12-26T17:27:25;4.60;99.90
23283;DHT22;11810;51.178;3.878;2022-12-26T17:35:35;4.50;99.90
23283;DHT22;11810;51.178;3.878;2022-12-26T17:38:05;4.40;99.90
23283;DHT22;11810;51.178;3.878;2022-12-26T17:40:40;4.30;99.90
23283;DHT22;11810;51.178;3.878;2022-12-26T17:45:39;4.30;99.90
23283;DHT22;11810;51.178;3.878;2022-12-26T17:48:06;4.30;99.90
23283;DHT22;11810;51.178;3.878;2022-12-26T17:50:36;4.40;99.90
23283;DHT22;11810;51.178;3.878;2022-12-26T17:53:23;4.50;99.90
23283;DHT22;11810;51.178;3.878;2022-12-26T17:55:52;4.60;99.90
23283;DHT22;11810;51.178;3.878;2022-12-26T17:58:18;4.60;99.90
23283;DHT22;11810;51.178;3.878;2022-12-26T18:00:44;4.60;99.90
23283;DHT22;11810;51.178;3.878;2022-12-26T18:03:10;4.70;99.90
23283;DHT22;11810;51.178;3.878;2022-12-26T18:05:36;4.80;99.90
23283;DHT22;11810;51.178;3.878;2022-12-26T18:08:03;5.00;99.90
23283;DHT22;11810;51.178;3.878;2022-12-26T18:10:32;5.00;99.90
23283;DHT22;11810;51.178;3.878;2022-12-26T18:12:58;4.90;99.90
23283;DHT22;11810;51.178;3.878;2022-12-26T18:15:25;4.80;99.90
23283;DHT22;11810;51.178;3.878;2022-12-26T18:17:52;4.80;99.90
23283;DHT22;11810;51.178;3.878;2022-12-26T18:20:26;4.60;99.90
23283;DHT22;11810;51.178;3.878;2022-12-26T18:22:53;4.50;99.90
23283;DHT22;11810;51.178;3.878;2022-12-26T18:25:21;4.40;99.90
23283;DHT22;11810;51.178;3.878;2022-12-26T18:27:48;4.40;99.90
23283;DHT22;11810;51.178;3.878;2022-12-26T18:30:20;4.30;99.90
23283;DHT22;11810;51.178;3.878;2022-12-26T18:32:47;4.40;99.90
23283;DHT22;11810;51.178;3.878;2022-12-26T18:35:14;4.40;99.90
23283;DHT22;11810;51.178;3.878;2022-12-26T18:37:45;4.50;99.90
23283;DHT22;11810;51.178;3.878;2022-12-26T18:42:53;4.50;99.90
23283;DHT22;11810;51.178;3.878;2022-12-26T18:45:19;4.50;99.90
23283;DHT22;11810;51.178;3.878;2022-12-26T18:47:45;4.40;99.90
23283;DHT22;11810;51.178;3.878;2022-12-26T18:50:13;4.30;99.90
23283;DHT22;11810;51.178;3.878;2022-12-26T18:52:40;4.20;99.90
23283;DHT22;11810;51.178;3.878;2022-12-26T18:55:07;4.20;99.90
23283;DHT22;11810;51.178;3.878;2022-12-26T18:57:33;4.10;99.90
23283;DHT22;11810;51.178;3.878;2022-12-26T18:59:59;4.10;99.90
23283;DHT22;11810;51.178;3.878;2022-12-26T19:02:25;4.10;99.90
23283;DHT22;11810;51.178;3.878;2022-12-26T19:04:51;4.10;99.90
23283;DHT22;11810;51.178;3.878;2022-12-26T19:07:18;4.10;99.90
23283;DHT22;11810;51.178;3.878;2022-12-26T19:09:50;4.10;99.90
23283;DHT22;11810;51.178;3.878;2022-12-26T19:12:20;4.20;99.90
23283;DHT22;11810;51.178;3.878;2022-12-26T19:14:47;4.20;99.90
23283;DHT22;11810;51.178;3.878;2022-12-26T19:17:13;4.20;99.90
23283;DHT22;11810;51.178;3.878;2022-12-26T19:19:47;4.20;99.90
23283;DHT22;11810;51.178;3.878;2022-12-26T19:22:13;4.30;99.90
23283;DHT22;11810;51.178;3.878;2022-12-26T19:24:39;4.30;99.90
23283;DHT22;11810;51.178;3.878;2022-12-26T19:27:05;4.50;99.90
23283;DHT22;11810;51.178;3.878;2022-12-26T19:29:31;4.60;99.90
23283;DHT22;11810;51.178;3.878;2022-12-26T19:31:57;4.70;99.90
23283;DHT22;11810;51.178;3.878;2022-12-26T19:34:23;4.60;99.90
23283;DHT22;11810;51.178;3.878;2022-12-26T19:36:49;4.70;99.90
23283;DHT22;11810;51.178;3.878;2022-12-26T19:39:15;4.80;99.90
23283;DHT22;11810;51.178;3.878;2022-12-26T19:41:41;4.80;99.90
23283;DHT22;11810;51.178;3.878;2022-12-26T19:44:07;4.80;99.90
23283;DHT22;11810;51.178;3.878;2022-12-26T19:46:34;4.90;99.90
23283;DHT22;11810;51.178;3.878;2022-12-26T19:49:00;4.90;99.90
23283;DHT22;11810;51.178;3.878;2022-12-26T19:51:26;4.80;99.90
23283;DHT22;11810;51.178;3.878;2022-12-26T19:53:51;4.90;99.90
23283;DHT22;11810;51.178;3.878;2022-12-26T19:56:23;4.80;99.90
23283;DHT22;11810;51.178;3.878;2022-12-26T19:58:50;4.70;99.90
23283;DHT22;11810;51.178;3.878;2022-12-26T20:01:22;4.80;99.90
23283;DHT22;11810;51.178;3.878;2022-12-26T20:03:49;4.80;99.90
23283;DHT22;11810;51.178;3.878;2022-12-26T20:06:18;4.80;99.90
23283;DHT22;11810;51.178;3.878;2022-12-26T20:08:46;4.80;99.90